»·PEaware :: SWA466 KSAT-KLAX

SWA466 :: KSAT-KLAX

FLIGHT INFORMATION

Flight Status: Arrived
Operator:
Southwest Airlines
More flights by this operator :: More flights under this callsign
Pilot: Kevin M. (7)
Aircraft: BOEING 737-700
(B737)
More flights by this aircraft type
Origin: KSAT San Antonio Intl
United States
Destination: KLAX Los Angeles Intl
United States
More flights between these airports :: More routes between these airports
Route: +ALISS2 FST J86 PGS RIIVR2
File this flight plan on PilotEdge
Remarks: Nothing to see here, keep working. / V /
Altitude:
(Current/Filed)
38,000ft
Speed:
(Current/Filed)
366kts
Departed: 24-May-13 11:12 AM
Arrived: 24-May-13 02:16 PM
Distance/Time
Traveled:
1049nm/3:04
Distance/Time
To Go:
Arrived

Flight Plot

Page will automatically refresh every two minutes.

Flight plan parsing failed; only flown route is shown


Map Options




Map Legend


Flown Route
Filed Route
Departure Airport
Arrival Airport
Navaid (VOR, NDB)
Fix

Horizontal Profiles

Position Reports

Time Latitude Longitude Heading Altitude Ground
Speed
24-May-13 11:12 29.879447 -98.791690 308 17629ft 378kts
24-May-13 11:13 29.947660 -98.887564 308 20556ft 396kts
24-May-13 11:14 30.017698 -98.986710 309 23279ft 405kts
24-May-13 11:15 30.090046 -99.089490 309 25379ft 420kts
24-May-13 11:16 30.163765 -99.197503 307 27147ft 434kts
24-May-13 11:17 30.238899 -99.310479 303 28488ft 449kts
24-May-13 11:18 30.284204 -99.444825 281 29947ft 452kts
24-May-13 11:19 30.312211 -99.584706 280 31783ft 444kts
24-May-13 11:20 30.340395 -99.725378 278 32997ft 451kts
24-May-13 11:21 30.368801 -99.865723 278 34559ft 446kts
24-May-13 11:22 30.396752 -100.005087 278 35886ft 443kts
24-May-13 11:23 30.424676 -100.144869 277 36730ft 450kts
24-May-13 11:24 30.452423 -100.285466 276 37835ft 447kts
24-May-13 11:25 30.480012 -100.426084 276 38116ft 447kts
24-May-13 11:26 30.507271 -100.565743 276 38111ft 445kts
24-May-13 11:27 30.534416 -100.705614 276 38087ft 445kts
24-May-13 11:28 30.561388 -100.845430 276 38064ft 444kts
24-May-13 11:29 30.588188 -100.985200 275 38045ft 444kts
24-May-13 11:30 30.614963 -101.125429 275 38008ft 444kts
24-May-13 11:31 30.641427 -101.265347 275 38009ft 444kts
24-May-13 11:32 30.667600 -101.404513 276 38014ft 438kts
24-May-13 11:33 30.693457 -101.542720 276 38022ft 438kts
24-May-13 11:34 30.719169 -101.681023 276 38035ft 438kts
24-May-13 11:35 30.744924 -101.819533 276 38065ft 439kts
24-May-13 11:36 30.770222 -101.957682 275 38087ft 438kts
24-May-13 11:37 30.795424 -102.096432 276 38116ft 435kts
24-May-13 11:38 30.820012 -102.232042 276 38141ft 426kts
24-May-13 11:39 30.844333 -102.367026 276 38144ft 427kts
24-May-13 11:40 30.872525 -102.524583 276 38158ft 427kts
24-May-13 11:41 30.892675 -102.637221 276 38162ft 427kts
24-May-13 11:42 30.916704 -102.772809 276 38166ft 426kts
24-May-13 11:43 30.940296 -102.907894 276 38165ft 426kts
24-May-13 11:44 30.969235 -103.042223 282 38164ft 431kts
24-May-13 11:45 31.006406 -103.174841 282 38155ft 431kts
24-May-13 11:46 31.042890 -103.307694 281 38159ft 431kts
24-May-13 11:47 31.085677 -103.463529 282 38147ft 433kts
24-May-13 11:48 31.116259 -103.575617 282 38152ft 433kts
24-May-13 11:49 31.152559 -103.709636 282 38143ft 434kts
24-May-13 11:50 31.188695 -103.843826 282 38150ft 434kts
24-May-13 11:51 31.224677 -103.978121 282 38161ft 434kts
24-May-13 11:52 31.260626 -104.112412 281 38141ft 434kts
24-May-13 11:53 31.296233 -104.246937 281 38125ft 434kts
24-May-13 11:54 31.331840 -104.382075 283 38055ft 440kts
24-May-13 11:55 31.367854 -104.518960 283 38047ft 440kts
24-May-13 11:56 31.403895 -104.656441 283 38021ft 440kts
24-May-13 11:57 31.439551 -104.793521 283 38029ft 441kts
24-May-13 11:58 31.475095 -104.930728 283 38010ft 440kts
24-May-13 11:59 31.510620 -105.067861 283 37997ft 440kts
24-May-13 12:00 31.545865 -105.205226 283 37996ft 440kts
24-May-13 12:01 31.580968 -105.343233 283 37996ft 440kts
24-May-13 12:02 31.615838 -105.480799 283 38001ft 441kts
24-May-13 12:03 31.650501 -105.618407 282 37996ft 440kts
24-May-13 12:04 31.684694 -105.755062 281 37997ft 436kts
24-May-13 12:05 31.719095 -105.891518 281 37996ft 436kts
24-May-13 12:06 31.753491 -106.028534 281 37996ft 436kts
24-May-13 12:07 31.787273 -106.165338 281 37996ft 436kts
24-May-13 12:08 31.831614 -106.298106 300 37996ft 448kts
24-May-13 12:09 31.913550 -106.409778 306 37993ft 451kts
24-May-13 12:10 31.997267 -106.520041 306 37994ft 452kts
24-May-13 12:11 32.081027 -106.630310 308 37996ft 451kts
24-May-13 12:12 32.164751 -106.740588 309 37996ft 451kts
24-May-13 12:13 32.248351 -106.851583 309 37996ft 451kts
24-May-13 12:14 32.331681 -106.962451 309 37996ft 451kts
24-May-13 12:15 32.414919 -107.073668 309 38007ft 452kts
24-May-13 12:16 32.498027 -107.184927 308 37996ft 451kts
24-May-13 12:17 32.581450 -107.296633 309 37996ft 451kts
24-May-13 12:18 32.664400 -107.408053 308 37994ft 450kts
24-May-13 12:19 32.746971 -107.519555 308 37996ft 450kts
24-May-13 12:20 32.829606 -107.631137 308 37990ft 449kts
24-May-13 12:21 32.911686 -107.742789 307 37996ft 449kts
24-May-13 12:22 32.993734 -107.854713 307 37996ft 449kts
24-May-13 12:23 33.075897 -107.966726 307 37997ft 449kts
24-May-13 12:24 33.157978 -108.079452 307 37996ft 449kts
24-May-13 12:25 33.239750 -108.192025 307 37996ft 449kts
24-May-13 12:26 33.321336 -108.304794 307 37997ft 449kts
24-May-13 12:27 33.402775 -108.417846 307 37996ft 449kts
24-May-13 12:28 33.484302 -108.530791 307 37996ft 449kts
24-May-13 12:29 33.566065 -108.643733 307 37996ft 449kts
24-May-13 12:30 33.648201 -108.756344 308 38009ft 447kts
24-May-13 12:31 33.732884 -108.865297 308 37996ft 444kts
24-May-13 12:32 33.819738 -108.970818 307 37996ft 444kts
24-May-13 12:33 33.906730 -109.076378 307 37995ft 444kts
24-May-13 12:34 33.993680 -109.181994 307 37996ft 444kts
24-May-13 12:35 34.080696 -109.287799 307 37996ft 444kts
24-May-13 12:36 34.167691 -109.393685 307 37997ft 444kts
24-May-13 12:37 34.254907 -109.499950 307 37996ft 444kts
24-May-13 12:38 34.342066 -109.605974 309 37989ft 445kts
24-May-13 12:39 34.429410 -109.711776 307 37996ft 444kts
24-May-13 12:40 34.515837 -109.819589 307 37996ft 448kts
24-May-13 12:41 34.602582 -109.927908 307 37993ft 447kts
24-May-13 12:42 34.688958 -110.037108 307 37996ft 447kts
24-May-13 12:43 34.775151 -110.146074 307 37996ft 447kts
24-May-13 12:44 34.860108 -110.255607 307 37996ft 443kts
24-May-13 12:45 34.943884 -110.365812 307 37997ft 444kts
24-May-13 12:46 35.027694 -110.476168 307 37996ft 444kts
24-May-13 12:47 35.111433 -110.586544 307 37996ft 444kts
24-May-13 12:48 35.195276 -110.697169 307 37996ft 444kts
24-May-13 12:49 35.279287 -110.808129 307 37996ft 444kts
24-May-13 12:50 35.339037 -110.935601 284 38137ft 433kts
24-May-13 12:51 35.376425 -111.075050 284 39229ft 431kts
24-May-13 12:52 35.413414 -111.214336 285 39977ft 429kts
24-May-13 12:53 35.450296 -111.352789 285 40000ft 428kts
24-May-13 12:54 35.487462 -111.491733 285 39996ft 427kts
24-May-13 12:55 35.524107 -111.630406 285 39997ft 427kts
24-May-13 12:56 35.560281 -111.769221 285 39996ft 427kts
24-May-13 12:57 35.591863 -111.909292 275 39996ft 423kts
24-May-13 12:58 35.597506 -112.053572 269 39995ft 421kts
24-May-13 12:59 35.600700 -112.197329 269 40001ft 422kts
24-May-13 13:00 35.603828 -112.341120 269 40003ft 422kts
24-May-13 13:01 35.606936 -112.484868 269 39996ft 421kts
24-May-13 13:02 35.609998 -112.628752 269 39995ft 420kts
24-May-13 13:03 35.612360 -112.772456 269 39996ft 421kts
24-May-13 13:04 35.615190 -112.916244 269 39996ft 421kts
24-May-13 13:05 35.617733 -113.060068 269 39996ft 421kts
24-May-13 13:06 35.620203 -113.204162 270 39997ft 419kts
24-May-13 13:07 35.622318 -113.347239 270 39995ft 418kts
24-May-13 13:08 35.624015 -113.490287 268 39994ft 419kts
24-May-13 13:09 35.591299 -113.626070 245 39997ft 419kts
24-May-13 13:10 35.582591 -113.647899 245 39996ft 419kts
24-May-13 13:11 35.582591 -113.647899 245 39996ft 419kts
24-May-13 13:12 35.582591 -113.647899 245 39996ft 419kts
24-May-13 13:13 35.582591 -113.647899 245 39996ft 419kts
24-May-13 13:14 35.582591 -113.647899 245 39996ft 419kts
24-May-13 13:15 35.582591 -113.647899 245 39996ft 419kts
24-May-13 13:16 35.582591 -113.647899 245 39996ft 419kts
24-May-13 13:17 35.582591 -113.647899 245 39996ft 419kts
24-May-13 13:18 35.582591 -113.647899 245 39996ft 419kts
24-May-13 13:19 35.582591 -113.647899 245 39996ft 419kts
24-May-13 13:20 35.582591 -113.647899 245 39996ft 419kts
24-May-13 13:21 35.582591 -113.647899 245 39996ft 419kts
24-May-13 13:22 35.582591 -113.647899 245 39996ft 419kts
24-May-13 13:23 35.582591 -113.647899 245 39996ft 419kts
24-May-13 13:24 35.582591 -113.647899 245 39996ft 419kts
24-May-13 13:25 35.582591 -113.647899 245 39996ft 419kts
24-May-13 13:26 35.582591 -113.647899 245 39996ft 419kts
24-May-13 13:27 35.582591 -113.647899 245 39996ft 419kts
24-May-13 13:28 35.582591 -113.647899 245 39996ft 419kts
24-May-13 13:29 35.582591 -113.647899 245 39996ft 419kts
24-May-13 13:30 35.582591 -113.647899 245 39996ft 419kts
24-May-13 13:31 35.577208 -113.661272 245 40011ft 420kts
24-May-13 13:32 35.525681 -113.789611 246 39995ft 419kts
24-May-13 13:33 35.474617 -113.918062 247 40002ft 419kts
24-May-13 13:34 35.423810 -114.046610 247 39998ft 419kts
24-May-13 13:35 35.372802 -114.175163 248 40004ft 420kts
24-May-13 13:36 35.321491 -114.303121 248 39993ft 417kts
24-May-13 13:37 35.268420 -114.428754 248 39996ft 416kts
24-May-13 13:38 35.216054 -114.554785 248 39996ft 416kts
24-May-13 13:39 35.163492 -114.680746 248 39992ft 416kts
24-May-13 13:40 35.110304 -114.806187 249 39995ft 416kts
24-May-13 13:41 35.055290 -114.930807 248 40013ft 416kts
24-May-13 13:42 35.006574 -115.058612 250 39992ft 416kts
24-May-13 13:43 34.952201 -115.182959 248 39996ft 416kts
24-May-13 13:44 34.898629 -115.307817 248 39998ft 416kts
24-May-13 13:45 34.847181 -115.433581 250 39995ft 416kts
24-May-13 13:46 34.793259 -115.558256 246 39998ft 417kts
24-May-13 13:47 34.737320 -115.680563 249 40004ft 413kts
24-May-13 13:48 34.685802 -115.805835 251 39993ft 413kts
24-May-13 13:49 34.630052 -115.928030 249 39999ft 414kts
24-May-13 13:50 34.579631 -116.053156 252 39985ft 413kts
24-May-13 13:51 34.529407 -116.177994 249 38102ft 413kts
24-May-13 13:52 34.471288 -116.298920 245 35035ft 417kts
24-May-13 13:53 34.414554 -116.420979 247 32110ft 410kts
24-May-13 13:54 34.364458 -116.542119 247 29741ft 396kts
24-May-13 13:55 34.312519 -116.657326 245 27392ft 386kts
24-May-13 13:56 34.261874 -116.770732 245 25052ft 379kts
24-May-13 13:57 34.212629 -116.881304 243 22761ft 369kts
24-May-13 13:58 34.163446 -116.988670 244 20506ft 364kts
24-May-13 13:59 34.115454 -117.094690 243 18295ft 355kts
24-May-13 14:00 34.072537 -117.192388 247 17962ft 296kts
24-May-13 14:01 34.049300 -117.285669 262 15337ft 318kts
24-May-13 14:02 34.035998 -117.391909 266 13431ft 319kts
24-May-13 14:03 34.031487 -117.497399 275 11951ft 313kts
24-May-13 14:04 34.035519 -117.595231 270 11094ft 271kts
24-May-13 14:05 34.025665 -117.682918 269 10136ft 266kts
24-May-13 14:06 34.016729 -117.774582 269 8910ft 277kts
24-May-13 14:07 34.007592 -117.865209 268 7669ft 271kts
24-May-13 14:08 33.999735 -117.954549 272 6373ft 263kts
24-May-13 14:09 33.993104 -118.037661 272 5091ft 235kts
24-May-13 14:10 33.985459 -118.110182 275 4015ft 210kts
24-May-13 14:11 33.976377 -118.186952 270 3936ft 225kts
24-May-13 14:12 33.968673 -118.252021 273 3833ft 173kts
24-May-13 14:13 33.961932 -118.307963 272 2133ft 155kts
24-May-13 14:14 33.956765 -118.354126 262 1098ft 131kts
24-May-13 14:15 33.952742 -118.395107 262 270ft 118kts
24-May-13 14:16 33.952846 -118.393989 262 289ft 118kts
24-May-13 14:17 33.950727 -118.415028 262 134ft 36kts
24-May-13 14:18 33.948508 -118.415369 125 134ft 10kts
24-May-13 14:19 33.948150 -118.410861 84 134ft 23kts
24-May-13 14:20 33.948956 -118.403103 82 134ft 16kts
24-May-13 14:21 33.947436 -118.400141 179 134ft 9kts
24-May-13 14:22 33.946546 -118.400609 268 134ft 0kts
24-May-13 14:23 33.946546 -118.400609 268 134ft 0kts
24-May-13 14:24 33.946546 -118.400609 268 134ft 0kts
24-May-13 14:25 33.946546 -118.400609 268 134ft 0kts

Navigation Log

Ident Type
Flight plan parsing failed, navigation log unavailable